createdAt,value
2022-08-08T00:00:54.452Z,100.00
2022-08-08T00:03:28.456Z,100.00
2022-08-08T00:06:10.379Z,100.00
2022-08-08T00:09:00.901Z,100.00
2022-08-08T00:12:02.975Z,100.00
2022-08-08T00:14:57.000Z,100.00
2022-08-08T00:18:02.623Z,100.00
2022-08-08T00:20:37.744Z,100.00
2022-08-08T00:23:28.501Z,100.00
2022-08-08T00:26:21.932Z,100.00
2022-08-08T00:29:11.551Z,100.00
2022-08-08T00:32:21.178Z,100.00
2022-08-08T00:35:18.506Z,100.00
2022-08-08T00:38:02.130Z,100.00
2022-08-08T00:41:10.963Z,100.00
2022-08-08T00:43:56.241Z,100.00
2022-08-08T00:46:58.598Z,100.00
2022-08-08T00:49:59.291Z,100.00
2022-08-08T00:52:55.495Z,100.00
2022-08-08T00:55:56.422Z,100.00
2022-08-08T00:59:09.099Z,100.00
2022-08-08T01:02:02.067Z,100.00
2022-08-08T01:04:36.108Z,100.00
2022-08-08T01:07:55.441Z,100.00
2022-08-08T01:10:50.903Z,100.00
2022-08-08T01:13:52.614Z,100.00
2022-08-08T01:16:46.483Z,100.00
2022-08-08T01:20:03.254Z,100.00
2022-08-08T01:23:55.621Z,100.00
2022-08-08T01:26:24.106Z,100.00
2022-08-08T01:29:03.678Z,100.00
2022-08-08T01:32:23.399Z,100.00
2022-08-08T01:35:15.967Z,100.00
2022-08-08T01:37:58.476Z,100.00
2022-08-08T01:40:54.105Z,100.00
2022-08-08T01:43:39.119Z,100.00
2022-08-08T01:46:43.043Z,100.00
2022-08-08T01:49:37.395Z,100.00
2022-08-08T01:53:01.786Z,100.00
2022-08-08T01:56:28.108Z,100.00
2022-08-08T01:58:32.095Z,100.00
2022-08-08T02:01:59.555Z,100.00
2022-08-08T02:04:59.814Z,100.00
2022-08-08T02:08:08.629Z,100.00
2022-08-08T02:11:23.126Z,100.00
2022-08-08T02:13:56.306Z,100.00
2022-08-08T02:16:58.060Z,100.00
2022-08-08T02:20:07.706Z,100.00
2022-08-08T02:22:54.614Z,100.00
2022-08-08T02:25:47.324Z,100.00
2022-08-08T02:28:51.688Z,100.00
2022-08-08T02:32:01.083Z,100.00
2022-08-08T02:35:08.429Z,100.00
2022-08-08T02:38:25.419Z,100.00
2022-08-08T02:41:58.593Z,100.00
2022-08-08T02:44:37.904Z,100.00
2022-08-08T02:47:39.628Z,100.00
2022-08-08T02:50:47.297Z,100.00
2022-08-08T02:53:54.239Z,100.00
2022-08-08T02:56:39.544Z,100.00
2022-08-08T02:59:58.227Z,100.00
2022-08-08T03:03:11.807Z,100.00
2022-08-08T03:06:10.597Z,100.00
2022-08-08T03:09:14.356Z,100.00
2022-08-08T03:12:14.446Z,100.00
2022-08-08T03:15:57.395Z,100.00
2022-08-08T03:18:06.981Z,100.00
2022-08-08T03:20:52.619Z,100.00
2022-08-08T03:23:30.350Z,100.00
2022-08-08T03:26:07.872Z,100.00
2022-08-08T03:28:42.094Z,100.00
2022-08-08T03:32:05.157Z,100.00
2022-08-08T03:34:18.350Z,100.00
2022-08-08T03:36:46.387Z,100.00
2022-08-08T03:39:16.083Z,100.00
2022-08-08T03:42:13.187Z,100.00
2022-08-08T03:44:40.303Z,100.00
2022-08-08T03:47:22.040Z,100.00
2022-08-08T03:50:00.918Z,100.00
2022-08-08T03:52:44.453Z,100.00
2022-08-08T03:55:55.542Z,100.00
2022-08-08T03:58:34.857Z,100.00
2022-08-08T04:01:23.431Z,100.00
2022-08-08T04:03:58.489Z,100.00
2022-08-08T04:06:30.926Z,100.00
2022-08-08T04:09:06.717Z,100.00
2022-08-08T04:11:58.598Z,100.00
2022-08-08T04:14:39.918Z,100.00
2022-08-08T04:17:22.901Z,100.00
2022-08-08T04:20:04.899Z,100.00
2022-08-08T04:22:34.222Z,100.00
2022-08-08T04:25:04.110Z,100.00
2022-08-08T04:28:02.723Z,100.00
2022-08-08T04:30:20.034Z,100.00
2022-08-08T04:32:53.256Z,100.00
2022-08-08T04:35:30.852Z,100.00
2022-08-08T04:38:01.137Z,100.00
2022-08-08T04:40:34.611Z,100.00
2022-08-08T04:43:03.807Z,100.00
2022-08-08T04:45:38.024Z,100.00
2022-08-08T04:48:06.670Z,100.00
2022-08-08T04:50:40.300Z,100.00
2022-08-08T04:54:36.447Z,100.00
2022-08-08T04:56:05.767Z,100.00
2022-08-08T04:58:35.410Z,100.00
2022-08-08T05:01:08.893Z,100.00
2022-08-08T05:04:10.325Z,100.00
2022-08-08T05:06:32.052Z,100.00
2022-08-08T05:09:02.786Z,100.00
2022-08-08T05:11:39.553Z,100.00
2022-08-08T05:14:14.136Z,100.00
2022-08-08T05:16:55.239Z,100.00
2022-08-08T05:20:11.494Z,100.00
2022-08-08T05:22:23.777Z,100.00
2022-08-08T05:24:52.747Z,100.00
2022-08-08T05:27:22.565Z,100.00
2022-08-08T05:29:52.813Z,100.00
2022-08-08T05:32:36.910Z,100.00
2022-08-08T05:35:07.560Z,100.00
2022-08-08T05:37:53.093Z,100.00
2022-08-08T05:40:57.585Z,100.00
2022-08-08T05:43:39.420Z,100.00
2022-08-08T05:46:11.292Z,100.00
2022-08-08T05:48:42.508Z,100.00
2022-08-08T05:51:15.795Z,100.00
2022-08-08T05:54:24.656Z,100.00
2022-08-08T05:56:47.627Z,97.85
2022-08-08T05:59:52.379Z,97.72
2022-08-08T06:02:47.992Z,96.82
2022-08-08T06:05:34.121Z,96.70
2022-08-08T06:08:14.504Z,93.86
2022-08-08T06:10:59.913Z,90.50
2022-08-08T06:13:35.823Z,89.37
2022-08-08T06:16:13.456Z,86.97
2022-08-08T06:19:07.968Z,85.85
2022-08-08T06:21:51.511Z,85.43
2022-08-08T06:24:31.139Z,85.68
2022-08-08T06:27:09.365Z,82.39
2022-08-08T06:29:59.563Z,80.77
2022-08-08T06:32:31.425Z,81.60
2022-08-08T06:36:04.895Z,82.48
2022-08-08T06:38:09.273Z,77.23
2022-08-08T06:40:48.755Z,73.44
2022-08-08T06:43:30.577Z,71.94
2022-08-08T06:46:16.228Z,74.01
2022-08-08T06:48:48.070Z,71.30
2022-08-08T06:51:17.208Z,72.84
2022-08-08T06:53:50.781Z,77.76
2022-08-08T06:56:31.658Z,73.87
2022-08-08T06:59:02.029Z,76.14
2022-08-08T07:02:26.963Z,72.88
2022-08-08T07:04:51.656Z,73.08
2022-08-08T07:07:47.099Z,73.73
2022-08-08T07:10:20.876Z,76.83
2022-08-08T07:12:55.996Z,72.57
2022-08-08T07:16:03.624Z,74.15
2022-08-08T07:18:49.467Z,70.25
2022-08-08T07:21:20.406Z,71.51
2022-08-08T07:24:04.748Z,71.23
2022-08-08T07:26:50.848Z,68.68
2022-08-08T07:29:59.971Z,67.06
2022-08-08T07:32:15.630Z,67.82
2022-08-08T07:34:59.392Z,66.65
2022-08-08T07:37:55.711Z,69.41
2022-08-08T07:40:29.943Z,66.40
2022-08-08T07:43:08.855Z,66.42
2022-08-08T07:45:51.447Z,65.39
2022-08-08T07:48:29.955Z,66.62
2022-08-08T07:51:01.507Z,62.60
2022-08-08T07:54:02.993Z,62.23
2022-08-08T07:57:35.969Z,64.18
2022-08-08T08:00:15.954Z,62.06
2022-08-08T08:03:09.840Z,58.50
2022-08-08T08:05:53.330Z,57.22
2022-08-08T08:08:39.966Z,63.66
2022-08-08T08:11:23.898Z,60.68
2022-08-08T08:14:09.952Z,53.15
2022-08-08T08:16:50.309Z,56.27
2022-08-08T08:19:23.332Z,57.34
2022-08-08T08:21:57.426Z,53.63
2022-08-08T08:24:51.361Z,53.63
2022-08-08T08:27:22.724Z,52.89
2022-08-08T08:29:57.465Z,53.97
2022-08-08T08:32:35.721Z,54.06
2022-08-08T08:35:13.221Z,53.87
2022-08-08T08:38:13.000Z,54.60
2022-08-08T08:40:34.906Z,54.52
2022-08-08T08:43:07.832Z,51.70
2022-08-08T08:45:40.879Z,52.81
2022-08-08T08:48:19.059Z,53.87
2022-08-08T08:50:54.333Z,52.41
2022-08-08T08:53:27.652Z,53.40
2022-08-08T08:56:23.740Z,52.21
2022-08-08T08:58:58.705Z,53.40
2022-08-08T09:01:38.098Z,50.27
2022-08-08T09:04:30.207Z,51.45
2022-08-08T09:07:12.970Z,48.55
2022-08-08T09:09:55.295Z,50.90
2022-08-08T09:12:33.151Z,52.27
2022-08-08T09:15:01.547Z,54.70
2022-08-08T09:17:41.695Z,54.35
2022-08-08T09:21:56.922Z,55.95
2022-08-08T09:23:11.301Z,51.93
2022-08-08T09:26:00.660Z,53.45
2022-08-08T09:28:38.269Z,54.05
2022-08-08T09:31:42.673Z,57.42
2022-08-08T09:34:32.862Z,52.67
2022-08-08T09:37:46.269Z,53.66
2022-08-08T09:40:10.831Z,50.58
2022-08-08T09:42:51.356Z,52.38
2022-08-08T09:46:01.151Z,52.52
2022-08-08T09:48:32.415Z,56.30
2022-08-08T09:51:05.870Z,50.33
2022-08-08T09:53:56.438Z,51.08
2022-08-08T09:56:35.187Z,52.41
2022-08-08T09:59:50.359Z,53.85
2022-08-08T10:02:12.865Z,52.41
2022-08-08T10:04:47.699Z,48.07
2022-08-08T10:07:17.344Z,50.35
2022-08-08T10:10:00.933Z,47.96
2022-08-08T10:12:52.937Z,46.27
2022-08-08T10:15:25.266Z,49.12
2022-08-08T10:18:09.085Z,46.68
2022-08-08T10:20:57.576Z,47.65
2022-08-08T10:23:56.115Z,48.55
2022-08-08T10:26:57.293Z,55.27
2022-08-08T10:29:58.461Z,48.58
2022-08-08T10:32:40.472Z,52.15
2022-08-08T10:36:06.233Z,49.96
2022-08-08T10:38:08.638Z,53.58
2022-08-08T10:40:38.703Z,52.23
2022-08-08T10:43:09.661Z,50.68
2022-08-08T10:45:55.526Z,51.97
2022-08-08T10:48:57.121Z,52.02
2022-08-08T10:51:25.939Z,54.11
2022-08-08T10:53:56.543Z,53.70
2022-08-08T10:56:34.828Z,55.73
2022-08-08T10:59:14.203Z,56.39
2022-08-08T11:01:49.295Z,56.43
2022-08-08T11:04:29.783Z,56.28
2022-08-08T11:07:07.434Z,59.58
2022-08-08T11:09:47.754Z,58.70
2022-08-08T11:12:15.435Z,56.69
2022-08-08T11:15:00.269Z,58.80
2022-08-08T11:17:59.993Z,50.74
2022-08-08T11:20:25.057Z,50.84
2022-08-08T11:23:01.076Z,52.66
2022-08-08T11:25:53.256Z,53.37
2022-08-08T11:28:29.440Z,47.58
2022-08-08T11:31:00.367Z,46.70
2022-08-08T11:33:50.934Z,47.74
2022-08-08T11:36:16.765Z,52.22
2022-08-08T11:38:54.086Z,50.67
2022-08-08T11:41:27.693Z,51.09
2022-08-08T11:44:01.172Z,51.45
2022-08-08T11:46:32.546Z,55.06
2022-08-08T11:49:08.582Z,56.76
2022-08-08T11:51:39.785Z,57.02
2022-08-08T11:54:31.854Z,55.94
2022-08-08T11:57:17.658Z,58.66
2022-08-08T12:00:02.662Z,56.07
2022-08-08T12:02:55.428Z,55.21
2022-08-08T12:05:41.662Z,59.82
2022-08-08T12:08:11.383Z,58.90
2022-08-08T12:10:53.030Z,58.77
2022-08-08T12:13:37.978Z,58.75
2022-08-08T12:16:16.642Z,55.11
2022-08-08T12:18:54.768Z,56.55
2022-08-08T12:21:59.492Z,53.45
2022-08-08T12:24:16.057Z,54.16
2022-08-08T12:26:50.039Z,50.98
2022-08-08T12:29:21.777Z,46.00
2022-08-08T12:32:19.768Z,49.55
2022-08-08T12:35:04.624Z,45.51
2022-08-08T12:37:47.922Z,44.47
2022-08-08T12:40:54.310Z,49.24
2022-08-08T12:43:31.948Z,46.99
2022-08-08T12:46:19.420Z,47.77
2022-08-08T12:49:22.165Z,47.87
2022-08-08T12:51:49.865Z,49.67
2022-08-08T12:54:25.643Z,46.10
2022-08-08T12:56:53.912Z,45.78
2022-08-08T12:59:27.322Z,48.93
2022-08-08T13:02:07.120Z,45.30
2022-08-08T13:04:34.854Z,50.49
2022-08-08T13:07:16.562Z,50.71
2022-08-08T13:10:05.680Z,52.58
2022-08-08T13:12:44.439Z,51.13
2022-08-08T13:15:17.155Z,55.21
2022-08-08T13:18:08.974Z,55.13
2022-08-08T13:20:44.679Z,56.32
2022-08-08T13:23:36.701Z,55.92
2022-08-08T13:26:15.700Z,58.54
2022-08-08T13:28:45.849Z,59.92
2022-08-08T13:31:17.098Z,62.27
2022-08-08T13:33:49.745Z,57.61
2022-08-08T13:36:26.082Z,54.47
2022-08-08T13:39:00.084Z,53.30
2022-08-08T13:41:39.408Z,48.71
2022-08-08T13:44:12.105Z,49.09
2022-08-08T13:46:40.443Z,47.76
2022-08-08T13:50:37.624Z,49.24
2022-08-08T13:52:10.326Z,48.25
2022-08-08T13:54:49.268Z,53.61
2022-08-08T13:57:17.449Z,49.39
2022-08-08T13:59:49.346Z,49.86
2022-08-08T14:02:33.007Z,45.63
2022-08-08T14:05:20.099Z,49.55
2022-08-08T14:07:53.075Z,45.84
2022-08-08T14:10:33.792Z,45.77
2022-08-08T14:13:30.952Z,50.96
2022-08-08T14:16:04.874Z,51.24
2022-08-08T14:19:02.829Z,54.23
2022-08-08T14:21:48.720Z,54.62
2022-08-08T14:24:34.914Z,54.78
2022-08-08T14:27:07.462Z,52.74
2022-08-08T14:29:40.241Z,55.12
2022-08-08T14:32:11.811Z,54.41
2022-08-08T14:34:42.622Z,55.40
2022-08-08T14:37:12.831Z,55.82
2022-08-08T14:39:49.461Z,51.68
2022-08-08T14:42:31.656Z,50.40
2022-08-08T14:45:02.743Z,51.58
2022-08-08T14:47:36.525Z,50.85
2022-08-08T14:50:14.903Z,51.23
2022-08-08T14:52:54.794Z,52.07
2022-08-08T14:55:35.201Z,51.66
2022-08-08T14:58:12.076Z,49.70
2022-08-08T15:00:45.284Z,48.96
2022-08-08T15:03:17.378Z,49.14
2022-08-08T15:05:53.550Z,47.76
2022-08-08T15:08:35.620Z,50.40
2022-08-08T15:11:09.484Z,45.90
2022-08-08T15:14:00.823Z,46.23
2022-08-08T15:16:28.619Z,49.21
2022-08-08T15:18:56.347Z,48.51
2022-08-08T15:21:27.826Z,50.59
2022-08-08T15:23:58.687Z,48.45
2022-08-08T15:26:29.264Z,49.81
2022-08-08T15:28:57.601Z,50.82
2022-08-08T15:31:55.880Z,49.10
2022-08-08T15:34:18.569Z,49.12
2022-08-08T15:36:59.235Z,51.63
2022-08-08T15:39:29.039Z,50.44
2022-08-08T15:42:00.203Z,51.05
2022-08-08T15:44:29.279Z,45.56
2022-08-08T15:46:57.474Z,47.40
2022-08-08T15:49:26.849Z,49.35
2022-08-08T15:51:56.978Z,47.38
2022-08-08T15:54:38.842Z,52.10
2022-08-08T15:57:13.162Z,57.06
2022-08-08T16:00:06.392Z,58.76
2022-08-08T16:02:30.703Z,61.73
2022-08-08T16:05:02.112Z,59.33
2022-08-08T16:07:39.560Z,54.33
2022-08-08T16:13:09.021Z,57.12
2022-08-08T16:13:28.103Z,58.17
2022-08-08T16:15:57.402Z,59.67
2022-08-08T16:18:36.898Z,57.09
2022-08-08T16:21:05.987Z,57.27
2022-08-08T16:23:55.713Z,62.19
2022-08-08T16:26:34.055Z,61.02
2022-08-08T16:29:09.253Z,59.89
2022-08-08T16:31:44.695Z,58.16
2022-08-08T16:34:19.740Z,59.01
2022-08-08T16:36:50.610Z,56.52
2022-08-08T16:39:59.745Z,57.39
2022-08-08T16:42:18.106Z,56.50
2022-08-08T16:44:55.187Z,57.70
2022-08-08T16:47:40.326Z,58.67
2022-08-08T16:50:20.151Z,58.44
2022-08-08T16:55:03.428Z,57.87
2022-08-08T16:55:55.611Z,60.07
2022-08-08T16:58:29.354Z,59.59
2022-08-08T17:01:05.504Z,60.41
2022-08-08T17:04:00.219Z,62.30
2022-08-08T17:06:41.798Z,63.19
2022-08-08T17:09:14.729Z,63.49
2022-08-08T17:11:51.577Z,64.78
2022-08-08T17:14:27.723Z,64.78
2022-08-08T17:17:03.872Z,64.82
2022-08-08T17:19:40.873Z,65.58
2022-08-08T17:22:09.761Z,65.91
2022-08-08T17:24:37.637Z,67.27
2022-08-08T17:27:05.499Z,67.70
2022-08-08T17:29:43.425Z,68.15
2022-08-08T17:32:28.887Z,67.56
2022-08-08T17:35:53.995Z,68.48
2022-08-08T17:37:51.722Z,69.22
2022-08-08T17:40:21.993Z,69.18
2022-08-08T17:42:50.916Z,71.83
2022-08-08T17:45:23.478Z,72.11
2022-08-08T17:47:54.622Z,72.89
2022-08-08T17:50:23.189Z,73.18
2022-08-08T17:52:53.152Z,73.36
2022-08-08T17:56:05.224Z,73.66
2022-08-08T17:58:09.335Z,73.10
2022-08-08T18:00:39.084Z,73.05
2022-08-08T18:03:13.797Z,74.32
2022-08-08T18:05:48.412Z,73.76
2022-08-08T18:08:37.797Z,74.99
2022-08-08T18:11:15.040Z,75.16
2022-08-08T18:13:46.011Z,75.00
2022-08-08T18:16:16.914Z,75.31
2022-08-08T18:18:52.706Z,75.99
2022-08-08T18:21:35.300Z,76.58
2022-08-08T18:24:18.716Z,76.73
2022-08-08T18:26:54.407Z,76.70
2022-08-08T18:29:33.558Z,76.52
2022-08-08T18:32:07.797Z,76.81
2022-08-08T18:34:36.764Z,76.45
2022-08-08T18:37:09.292Z,76.76
2022-08-08T18:39:41.405Z,76.61
2022-08-08T18:42:16.053Z,77.41
2022-08-08T18:44:54.992Z,77.62
2022-08-08T18:47:27.705Z,78.25
2022-08-08T18:50:00.217Z,78.70
2022-08-08T18:52:34.748Z,78.50
2022-08-08T18:55:10.181Z,78.65
2022-08-08T18:57:45.080Z,78.51
2022-08-08T19:00:21.418Z,78.47
2022-08-08T19:02:55.732Z,78.58
2022-08-08T19:05:30.584Z,79.12
2022-08-08T19:08:25.175Z,79.95
2022-08-08T19:11:02.074Z,79.68
2022-08-08T19:13:52.629Z,79.52
2022-08-08T19:16:23.887Z,79.08
2022-08-08T19:19:02.308Z,79.74
2022-08-08T19:21:48.902Z,79.16
2022-08-08T19:24:48.863Z,81.03
2022-08-08T19:27:07.445Z,83.01
2022-08-08T19:29:40.759Z,83.16
2022-08-08T19:32:12.937Z,81.89
2022-08-08T19:34:49.460Z,81.43
2022-08-08T19:37:41.769Z,81.56
2022-08-08T19:40:14.563Z,81.56
2022-08-08T19:42:47.929Z,81.80
2022-08-08T19:45:58.976Z,83.01
2022-08-08T19:48:28.261Z,83.65
2022-08-08T19:50:54.453Z,83.68
2022-08-08T19:53:51.328Z,84.28
2022-08-08T19:56:12.175Z,82.86
2022-08-08T19:58:41.852Z,82.67
2022-08-08T20:01:17.250Z,83.31
2022-08-08T20:04:01.035Z,84.23
2022-08-08T20:06:30.702Z,84.10
2022-08-08T20:08:59.901Z,84.28
2022-08-08T20:11:32.036Z,85.23
2022-08-08T20:14:12.536Z,84.97
2022-08-08T20:16:47.382Z,85.14
2022-08-08T20:19:20.700Z,86.11
2022-08-08T20:21:49.066Z,86.28
2022-08-08T20:24:18.780Z,86.26
2022-08-08T20:26:49.395Z,86.85
2022-08-08T20:29:17.979Z,87.15
2022-08-08T20:32:07.724Z,86.78
2022-08-08T20:34:33.534Z,87.48
2022-08-08T20:37:04.342Z,88.14
2022-08-08T20:39:41.562Z,88.63
2022-08-08T20:42:28.408Z,89.08
2022-08-08T20:44:57.959Z,89.55
2022-08-08T20:47:26.244Z,89.77
2022-08-08T20:49:57.870Z,89.90
2022-08-08T20:52:30.036Z,90.48
2022-08-08T20:54:58.097Z,90.99
2022-08-08T20:57:27.143Z,91.17
2022-08-08T20:59:59.041Z,91.66
2022-08-08T21:02:28.093Z,91.75
2022-08-08T21:05:00.326Z,91.32
2022-08-08T21:07:47.541Z,91.03
2022-08-08T21:10:20.856Z,91.67
2022-08-08T21:12:52.968Z,92.22
2022-08-08T21:16:05.338Z,92.39
2022-08-08T21:18:12.258Z,91.97
2022-08-08T21:20:42.364Z,92.79
2022-08-08T21:23:13.108Z,92.54
2022-08-08T21:25:48.876Z,93.51
2022-08-08T21:28:33.659Z,93.15
2022-08-08T21:31:22.092Z,93.27
2022-08-08T21:33:52.575Z,94.17
2022-08-08T21:36:28.924Z,94.63
2022-08-08T21:38:57.790Z,95.27
2022-08-08T21:41:38.435Z,95.46
2022-08-08T21:44:11.635Z,97.61
2022-08-08T21:48:05.526Z,96.08
2022-08-08T21:49:31.716Z,95.95
2022-08-08T21:54:17.770Z,96.72
2022-08-08T21:55:03.215Z,97.02
2022-08-08T21:57:42.001Z,97.92
2022-08-08T22:00:14.104Z,98.23
2022-08-08T22:02:44.280Z,98.64
2022-08-08T22:05:14.847Z,98.75
2022-08-08T22:07:48.346Z,98.83
2022-08-08T22:10:32.480Z,100.00
2022-08-08T22:13:17.736Z,100.00
2022-08-08T22:15:58.905Z,100.00
2022-08-08T22:18:34.439Z,100.00
2022-08-08T22:21:14.274Z,100.00
2022-08-08T22:23:49.548Z,100.00
2022-08-08T22:26:29.039Z,100.00
2022-08-08T22:29:14.593Z,100.00
2022-08-08T22:31:58.650Z,100.00
2022-08-08T22:34:39.807Z,100.00
2022-08-08T22:37:24.456Z,100.00
2022-08-08T22:40:01.160Z,100.00
2022-08-08T22:42:32.042Z,100.00
2022-08-08T22:45:12.273Z,100.00
2022-08-08T22:47:47.385Z,100.00
2022-08-08T22:50:27.177Z,100.00
2022-08-08T22:54:29.443Z,100.00
2022-08-08T22:55:57.609Z,100.00
2022-08-08T22:58:34.243Z,100.00
2022-08-08T23:01:16.657Z,100.00
2022-08-08T23:03:55.461Z,100.00
2022-08-08T23:06:27.193Z,100.00
2022-08-08T23:08:59.028Z,100.00
2022-08-08T23:12:17.760Z,100.00
2022-08-08T23:14:21.250Z,100.00
2022-08-08T23:16:54.781Z,100.00
2022-08-08T23:19:32.119Z,100.00
2022-08-08T23:22:05.204Z,100.00
2022-08-08T23:24:36.111Z,100.00
2022-08-08T23:27:06.284Z,100.00
2022-08-08T23:29:34.285Z,100.00
2022-08-08T23:32:04.690Z,100.00
2022-08-08T23:34:33.780Z,100.00
2022-08-08T23:37:02.688Z,100.00
2022-08-08T23:39:41.946Z,100.00
2022-08-08T23:42:17.325Z,100.00
2022-08-08T23:44:49.092Z,100.00
2022-08-08T23:48:59.626Z,100.00
2022-08-08T23:50:05.669Z,100.00
2022-08-08T23:52:33.904Z,100.00
2022-08-08T23:55:14.208Z,100.00
2022-08-08T23:57:52.070Z,100.00
